Time;durP1;ratioP1;P1;durP2;ratioP2;P2;SDS_P1;SDS_P2;PMS_P1;PMS_P2;Temp;Humidity;BMP_temperature;BMP_pressure;BME280_temperature;BME280_humidity;BME280_pressure;Samples;Min_cycle;Max_cycle;Signal;HPM_P1;HPM_P2
2022/08/28 00:01:03;;;;;;;8.73;2.10;;;14.50;99.90;;;;;;5098788;28;20043;-76
2022/08/28 00:03:31;;;;;;;7.75;3.08;;;14.50;99.90;;;;;;5095041;28;20032;-76
2022/08/28 00:05:57;;;;;;;8.23;2.42;;;14.40;99.90;;;;;;5092145;28;20028;-76
2022/08/28 00:08:23;;;;;;;13.95;2.67;;;14.40;99.90;;;;;;5085726;28;20055;-75
2022/08/28 00:10:48;;;;;;;7.70;2.70;;;14.40;99.90;;;;;;5095700;28;20372;-76
2022/08/28 00:13:17;;;;;;;6.93;2.58;;;14.40;99.90;;;;;;5095961;28;20016;-76
2022/08/28 00:15:44;;;;;;;8.15;2.38;;;14.30;99.90;;;;;;5092317;28;20028;-75
2022/08/28 00:18:10;;;;;;;8.77;2.65;;;14.30;99.90;;;;;;5094062;28;20388;-76
2022/08/28 00:20:37;;;;;;;9.35;2.10;;;14.30;99.90;;;;;;5094045;28;20021;-76
2022/08/28 00:23:04;;;;;;;7.68;2.33;;;14.30;99.90;;;;;;5084980;28;20058;-76
2022/08/28 00:25:31;;;;;;;11.07;3.17;;;14.30;99.90;;;;;;5093623;28;20024;-76
2022/08/28 00:28:00;;;;;;;10.85;3.25;;;14.30;99.90;;;;;;5092576;28;20029;-76
2022/08/28 00:30:35;;;;;;;7.68;2.10;;;14.20;99.90;;;;;;5105285;28;20038;-76
2022/08/28 00:33:07;;;;;;;12.35;2.72;;;14.20;99.90;;;;;;5092573;28;20024;-76
2022/08/28 00:35:33;;;;;;;9.52;2.90;;;14.20;99.90;;;;;;5101498;28;20027;-76
2022/08/28 00:37:59;;;;;;;8.82;2.47;;;14.20;99.90;;;;;;5110361;28;20380;-76
2022/08/28 00:40:27;;;;;;;9.32;2.85;;;14.10;99.90;;;;;;5095341;28;20451;-76
2022/08/28 00:42:54;;;;;;;11.07;3.25;;;14.10;99.90;;;;;;5090072;28;20052;-76
2022/08/28 00:45:20;;;;;;;11.00;2.70;;;14.10;99.90;;;;;;5095071;28;20070;-76
2022/08/28 00:47:46;;;;;;;7.30;2.35;;;14.00;99.90;;;;;;5090273;28;20047;-76
2022/08/28 00:50:16;;;;;;;11.00;2.42;;;14.00;99.90;;;;;;5093717;28;20067;-76
2022/08/28 00:52:45;;;;;;;11.38;2.45;;;13.90;99.90;;;;;;5095157;28;20476;-75
2022/08/28 00:55:14;;;;;;;9.85;3.25;;;13.90;99.90;;;;;;5095117;28;20028;-76
2022/08/28 00:57:43;;;;;;;11.30;2.45;;;13.90;99.90;;;;;;5093632;28;20353;-76
2022/08/28 01:00:19;;;;;;;8.55;2.28;;;13.90;99.90;;;;;;5092201;28;20144;-75
2022/08/28 01:02:44;;;;;;;9.38;2.33;;;13.90;99.90;;;;;;5092971;28;20020;-76
2022/08/28 01:05:12;;;;;;;11.35;3.47;;;13.80;99.90;;;;;;5095038;28;20051;-76
2022/08/28 01:07:38;;;;;;;23.52;2.45;;;13.80;99.90;;;;;;5094411;28;20048;-76
2022/08/28 01:10:08;;;;;;;10.30;1.75;;;13.70;99.90;;;;;;5091268;28;20057;-75
2022/08/28 01:12:34;;;;;;;9.00;2.35;;;13.70;99.90;;;;;;5088979;28;20028;-75
2022/08/28 01:15:08;;;;;;;10.05;2.28;;;13.70;99.90;;;;;;5094178;28;20073;-75
2022/08/28 01:17:34;;;;;;;7.10;1.98;;;13.70;99.90;;;;;;5086200;28;20077;-76
2022/08/28 01:20:05;;;;;;;9.35;1.73;;;13.60;99.90;;;;;;5090504;28;20016;-75
2022/08/28 01:22:47;;;;;;;8.15;2.22;;;13.60;99.90;;;;;;5089717;28;20028;-75
2022/08/28 01:25:18;;;;;;;7.10;2.45;;;13.60;99.90;;;;;;5090825;28;20386;-76
2022/08/28 01:27:44;;;;;;;8.88;2.58;;;13.50;99.90;;;;;;5096886;28;20032;-76
2022/08/28 01:30:16;;;;;;;8.40;2.00;;;13.50;99.90;;;;;;5105293;28;20394;-75
2022/08/28 01:32:46;;;;;;;9.13;2.35;;;13.50;99.90;;;;;;5094062;28;20035;-75
2022/08/28 01:35:15;;;;;;;9.13;2.28;;;13.50;99.90;;;;;;5094455;28;20106;-75
2022/08/28 01:37:41;;;;;;;9.77;2.25;;;13.40;99.90;;;;;;5089375;28;20028;-75
2022/08/28 01:40:10;;;;;;;9.23;3.10;;;13.40;99.90;;;;;;5093657;28;20043;-75
2022/08/28 01:42:40;;;;;;;8.48;2.38;;;13.40;99.90;;;;;;5091403;28;20107;-76
2022/08/28 01:45:09;;;;;;;12.35;3.25;;;13.40;99.90;;;;;;5084023;28;20476;-76
2022/08/28 01:47:39;;;;;;;8.10;2.50;;;13.30;99.90;;;;;;5079862;28;20020;-75
2022/08/28 01:50:05;;;;;;;10.25;2.47;;;13.30;99.90;;;;;;5092994;28;20127;-76
2022/08/28 01:52:32;;;;;;;12.05;2.53;;;13.30;99.90;;;;;;5094273;28;20429;-75
2022/08/28 01:54:58;;;;;;;8.15;1.95;;;13.30;99.90;;;;;;5093372;28;20028;-76
2022/08/28 01:57:25;;;;;;;9.98;3.05;;;13.20;99.90;;;;;;5087094;28;20369;-76
2022/08/28 01:59:51;;;;;;;7.78;2.72;;;13.20;99.90;;;;;;5107545;28;20059;-73
2022/08/28 02:02:16;;;;;;;5.68;2.00;;;13.20;99.90;;;;;;5094572;28;20036;-73
2022/08/28 02:04:42;;;;;;;7.85;1.90;;;13.20;99.90;;;;;;5077920;28;20389;-74
2022/08/28 02:07:08;;;;;;;8.63;1.83;;;13.10;99.90;;;;;;5089691;28;20090;-73
2022/08/28 02:09:34;;;;;;;11.85;2.67;;;13.10;99.90;;;;;;5099852;28;20040;-75
2022/08/28 02:12:00;;;;;;;8.75;2.33;;;13.10;99.90;;;;;;5074519;28;20400;-76
2022/08/28 02:14:25;;;;;;;10.02;2.35;;;13.10;99.90;;;;;;5087098;28;20074;-76
2022/08/28 02:16:51;;;;;;;6.22;2.30;;;13.10;99.90;;;;;;5090165;28;20059;-76
2022/08/28 02:19:16;;;;;;;10.05;2.42;;;13.10;99.90;;;;;;5089689;28;20056;-76
2022/08/28 02:21:42;;;;;;;9.38;2.40;;;13.10;99.90;;;;;;5090695;28;20020;-76
2022/08/28 02:24:08;;;;;;;13.25;2.03;;;13.00;99.90;;;;;;5090342;28;20442;-76
2022/08/28 02:26:33;;;;;;;6.97;1.83;;;13.00;99.90;;;;;;5077024;28;20103;-76
2022/08/28 02:28:59;;;;;;;9.27;2.40;;;13.00;99.90;;;;;;5086205;28;20048;-76
2022/08/28 02:31:26;;;;;;;7.15;1.95;;;13.00;99.90;;;;;;5096134;28;20044;-75
2022/08/28 02:33:51;;;;;;;9.57;3.08;;;13.00;99.90;;;;;;5111583;28;20428;-76
2022/08/28 02:36:21;;;;;;;9.20;2.08;;;12.90;99.90;;;;;;5091759;28;20020;-75
2022/08/28 02:38:49;;;;;;;16.02;2.42;;;12.90;99.90;;;;;;5089119;28;20024;-76
2022/08/28 02:41:15;;;;;;;9.32;2.25;;;12.90;99.90;;;;;;5092689;28;20039;-76
2022/08/28 02:43:41;;;;;;;6.25;2.60;;;12.90;99.90;;;;;;5090490;28;20095;-76
2022/08/28 02:46:07;;;;;;;11.80;2.63;;;12.90;99.90;;;;;;5088481;28;20471;-76
2022/08/28 02:48:35;;;;;;;10.13;2.10;;;12.90;99.90;;;;;;5090482;28;20092;-76
2022/08/28 02:51:04;;;;;;;11.63;3.25;;;12.90;99.90;;;;;;5092254;28;20025;-75
2022/08/28 02:53:30;;;;;;;8.63;2.45;;;12.90;99.90;;;;;;5091410;28;20027;-76
2022/08/28 02:55:56;;;;;;;7.30;2.30;;;12.80;99.90;;;;;;5080722;28;20123;-76
2022/08/28 02:58:22;;;;;;;9.75;2.22;;;12.80;99.90;;;;;;5090481;28;20028;-76
2022/08/28 03:00:48;;;;;;;11.77;2.22;;;12.70;99.90;;;;;;5086451;28;20020;-76
2022/08/28 03:03:14;;;;;;;10.13;2.85;;;12.70;99.90;;;;;;5089608;28;20028;-75
2022/08/28 03:05:40;;;;;;;9.43;2.47;;;12.70;99.90;;;;;;5093020;28;20085;-76
2022/08/28 03:08:06;;;;;;;17.35;3.92;;;12.60;99.90;;;;;;5082592;28;20037;-74
2022/08/28 03:10:31;;;;;;;6.65;2.10;;;12.60;99.90;;;;;;5089189;28;20032;-75
2022/08/28 03:12:57;;;;;;;10.50;3.08;;;12.60;99.90;;;;;;5089963;28;20036;-74
2022/08/28 03:15:22;;;;;;;8.23;2.40;;;12.60;99.90;;;;;;5080324;28;20025;-74
2022/08/28 03:17:48;;;;;;;7.85;2.38;;;12.50;99.90;;;;;;5091636;28;20090;-74
2022/08/28 03:20:15;;;;;;;12.70;2.70;;;12.50;99.90;;;;;;5087834;28;20039;-74
2022/08/28 03:25:25;;;;;;;8.63;2.30;;;12.50;99.90;;;;;;5094000;28;20108;-74
2022/08/28 03:27:51;;;;;;;9.43;2.33;;;12.50;99.90;;;;;;5081763;28;20036;-74
2022/08/28 03:30:18;;;;;;;8.30;2.08;;;12.40;99.90;;;;;;5091130;28;20144;-76
2022/08/28 03:32:43;;;;;;;13.27;2.40;;;12.40;99.90;;;;;;5092431;28;20024;-76
2022/08/28 03:35:10;;;;;;;7.78;2.75;;;12.40;99.90;;;;;;5091422;28;20135;-74
2022/08/28 03:37:36;;;;;;;8.55;2.42;;;12.40;99.90;;;;;;5077622;28;20029;-74
2022/08/28 03:40:03;;;;;;;6.55;2.13;;;12.40;99.90;;;;;;5095886;28;20515;-74
2022/08/28 03:42:30;;;;;;;9.70;2.63;;;12.40;99.90;;;;;;5092797;28;20032;-74
2022/08/28 03:44:56;;;;;;;9.07;2.30;;;12.30;99.90;;;;;;5093342;28;20027;-74
2022/08/28 03:47:23;;;;;;;7.35;2.20;;;12.30;99.90;;;;;;5092729;28;20024;-74
2022/08/28 03:49:56;;;;;;;7.43;2.13;;;12.30;99.90;;;;;;5071154;28;20045;-74
2022/08/28 03:52:22;;;;;;;7.28;2.58;;;12.30;99.90;;;;;;5088339;28;20426;-74
2022/08/28 03:54:48;;;;;;;9.55;2.72;;;12.30;99.90;;;;;;5085838;28;20029;-74
2022/08/28 03:57:19;;;;;;;6.63;2.28;;;12.30;99.90;;;;;;5092312;28;20111;-75
2022/08/28 03:59:46;;;;;;;6.72;1.98;;;12.30;99.90;;;;;;5092595;28;20452;-74
2022/08/28 04:02:12;;;;;;;10.48;2.42;;;12.30;99.90;;;;;;5090882;28;20058;-75
2022/08/28 04:04:38;;;;;;;9.02;2.85;;;12.20;99.90;;;;;;5092196;28;20020;-74
2022/08/28 04:07:03;;;;;;;8.52;2.38;;;12.20;99.90;;;;;;5092495;28;20492;-74
2022/08/28 04:09:29;;;;;;;6.32;2.25;;;12.20;99.90;;;;;;5090724;28;20048;-74
2022/08/28 04:11:54;;;;;;;8.38;1.90;;;12.20;99.90;;;;;;5090707;28;20530;-74
2022/08/28 04:14:20;;;;;;;9.90;3.17;;;12.20;99.90;;;;;;5091173;28;20032;-74
2022/08/28 04:16:45;;;;;;;9.93;2.22;;;12.10;99.90;;;;;;5092328;28;20027;-75
2022/08/28 04:19:11;;;;;;;8.25;2.38;;;12.10;99.90;;;;;;5092235;28;20028;-74
2022/08/28 04:21:38;;;;;;;9.35;2.35;;;12.10;99.90;;;;;;5088863;28;20027;-74
2022/08/28 04:24:04;;;;;;;12.35;3.08;;;12.10;99.90;;;;;;5095096;28;20457;-75
2022/08/28 04:26:35;;;;;;;7.18;2.47;;;12.10;99.90;;;;;;5093725;28;20058;-74
2022/08/28 04:29:01;;;;;;;12.57;2.35;;;12.00;99.90;;;;;;5091885;28;20035;-75
2022/08/28 04:31:27;;;;;;;7.25;2.30;;;12.00;99.90;;;;;;5090368;28;20020;-74
2022/08/28 04:33:52;;;;;;;8.18;2.35;;;12.00;99.90;;;;;;5091991;28;20024;-74
2022/08/28 04:36:18;;;;;;;11.73;2.40;;;12.00;99.90;;;;;;5104722;28;20547;-74
2022/08/28 04:38:44;;;;;;;8.63;2.80;;;11.90;99.90;;;;;;5095217;28;20077;-74
2022/08/28 04:41:12;;;;;;;7.97;2.72;;;11.90;99.90;;;;;;5088602;28;20032;-75
2022/08/28 04:43:38;;;;;;;7.97;2.85;;;11.90;99.90;;;;;;5093247;28;20035;-74
2022/08/28 04:46:12;;;;;;;17.15;3.28;;;11.90;99.90;;;;;;5094976;28;20414;-75
2022/08/28 04:48:39;;;;;;;9.43;2.80;;;11.90;99.90;;;;;;5095214;28;20431;-75
2022/08/28 04:51:07;;;;;;;12.32;3.75;;;11.90;99.90;;;;;;5097527;28;20157;-74
2022/08/28 04:53:33;;;;;;;11.32;3.50;;;11.90;99.90;;;;;;5091529;28;20049;-75
2022/08/28 04:56:01;;;;;;;19.35;6.03;;;11.90;99.90;;;;;;5093590;28;20032;-74
2022/08/28 04:58:27;;;;;;;11.32;3.42;;;11.90;99.90;;;;;;5080922;28;20012;-74
2022/08/28 05:00:53;;;;;;;10.35;2.97;;;11.90;99.90;;;;;;5094294;28;20039;-74
2022/08/28 05:03:20;;;;;;;11.40;3.15;;;11.90;99.90;;;;;;5091167;28;20046;-74
2022/08/28 05:05:49;;;;;;;13.15;2.80;;;11.90;99.90;;;;;;5092471;28;20031;-75
2022/08/28 05:08:16;;;;;;;16.75;4.53;;;11.90;99.90;;;;;;5082447;28;20055;-74
2022/08/28 05:10:42;;;;;;;50.78;11.30;;;11.90;99.90;;;;;;5086651;28;20498;-74
2022/08/28 05:13:10;;;;;;;19.55;5.43;;;12.00;99.90;;;;;;5090957;28;20038;-75
2022/08/28 05:15:45;;;;;;;11.30;3.45;;;12.00;99.90;;;;;;5094648;28;20031;-75
2022/08/28 05:18:15;;;;;;;12.23;3.25;;;12.00;99.90;;;;;;5100884;28;20078;-75
2022/08/28 05:20:43;;;;;;;12.18;3.35;;;12.10;99.90;;;;;;5092203;28;20047;-75
2022/08/28 05:23:10;;;;;;;14.07;3.15;;;12.20;99.90;;;;;;5088398;28;20073;-75
2022/08/28 05:25:38;;;;;;;10.25;3.50;;;12.20;99.90;;;;;;5086766;28;20016;-74
2022/08/28 05:28:05;;;;;;;11.68;2.95;;;12.30;99.90;;;;;;5073899;28;20040;-75
2022/08/28 05:30:32;;;;;;;9.35;2.75;;;12.30;99.90;;;;;;5078788;28;20046;-75
2022/08/28 05:32:58;;;;;;;9.90;2.67;;;12.40;99.90;;;;;;5091638;28;20437;-75
2022/08/28 05:35:25;;;;;;;13.93;2.70;;;12.40;99.90;;;;;;5089531;28;20040;-75
2022/08/28 05:37:54;;;;;;;6.15;2.88;;;12.40;99.90;;;;;;5111164;28;20518;-74
2022/08/28 05:40:21;;;;;;;9.50;2.58;;;12.50;99.90;;;;;;5093587;28;20467;-75
2022/08/28 05:42:49;;;;;;;12.60;3.10;;;12.50;99.90;;;;;;5091216;28;20028;-75
2022/08/28 05:45:15;;;;;;;15.27;3.30;;;12.60;99.90;;;;;;5089191;28;20036;-74
2022/08/28 05:47:42;;;;;;;9.60;3.33;;;12.70;99.90;;;;;;5104410;28;20106;-75
2022/08/28 05:50:08;;;;;;;10.38;2.40;;;12.70;99.90;;;;;;5102313;28;20039;-75
2022/08/28 05:52:35;;;;;;;9.63;2.50;;;12.80;99.90;;;;;;5099781;28;20031;-74
2022/08/28 05:55:01;;;;;;;10.43;3.08;;;12.90;99.90;;;;;;5092174;28;20076;-75
2022/08/28 05:57:28;;;;;;;10.57;2.63;;;13.00;99.90;;;;;;5093806;28;20115;-75
2022/08/28 05:59:53;;;;;;;8.75;2.22;;;13.00;99.90;;;;;;5092141;28;20021;-75
2022/08/28 06:02:19;;;;;;;12.77;2.53;;;13.10;99.90;;;;;;5078309;28;20024;-75
2022/08/28 06:04:47;;;;;;;9.63;2.45;;;13.20;99.90;;;;;;5088258;28;20029;-75
2022/08/28 06:07:14;;;;;;;8.35;2.10;;;13.30;99.90;;;;;;5100517;28;20051;-75
2022/08/28 06:09:41;;;;;;;11.35;2.65;;;13.30;99.90;;;;;;5089540;28;20045;-75
2022/08/28 06:12:07;;;;;;;7.93;2.50;;;13.40;99.90;;;;;;5089360;28;20529;-75
2022/08/28 06:14:33;;;;;;;7.82;2.63;;;13.50;99.90;;;;;;5090664;28;20055;-77
2022/08/28 06:17:00;;;;;;;10.48;2.38;;;13.60;99.90;;;;;;5077152;28;20021;-77
2022/08/28 06:19:27;;;;;;;8.57;2.50;;;13.80;99.90;;;;;;5097019;28;20035;-76
2022/08/28 06:21:56;;;;;;;9.43;2.85;;;13.90;99.90;;;;;;5096859;28;20020;-77
2022/08/28 06:24:22;;;;;;;9.07;2.53;;;14.00;99.90;;;;;;5084041;28;20032;-77
2022/08/28 06:26:48;;;;;;;7.32;2.17;;;14.10;99.90;;;;;;5107600;28;20016;-77
2022/08/28 06:29:16;;;;;;;8.85;2.70;;;14.20;99.90;;;;;;5093151;28;20043;-76
2022/08/28 06:31:41;;;;;;;9.18;2.00;;;14.30;99.90;;;;;;5091303;28;20459;-77
2022/08/28 06:34:08;;;;;;;8.43;1.83;;;14.40;99.90;;;;;;5101587;28;20054;-77
2022/08/28 06:36:36;;;;;;;8.48;1.80;;;14.60;99.90;;;;;;5097918;28;20025;-79
2022/08/28 06:39:04;;;;;;;4.22;1.60;;;14.70;99.90;;;;;;5087905;28;20036;-78
2022/08/28 06:41:31;;;;;;;9.82;1.92;;;14.80;99.90;;;;;;5090383;28;20032;-77
2022/08/28 06:43:57;;;;;;;8.90;1.90;;;14.90;99.90;;;;;;5083370;28;20071;-77
2022/08/28 06:46:23;;;;;;;12.13;1.88;;;15.00;99.90;;;;;;5080162;28;20016;-77
2022/08/28 06:48:49;;;;;;;10.82;1.80;;;15.10;99.90;;;;;;5090703;28;20028;-77
2022/08/28 06:51:15;;;;;;;8.02;1.65;;;15.20;99.90;;;;;;5092720;28;20028;-77
2022/08/28 06:53:44;;;;;;;8.88;1.27;;;15.40;99.90;;;;;;5077979;28;20024;-77
2022/08/28 06:56:12;;;;;;;7.45;1.30;;;15.50;99.90;;;;;;5091501;28;20467;-77
2022/08/28 06:58:41;;;;;;;11.10;2.60;;;15.60;99.90;;;;;;5087953;28;20502;-76
2022/08/28 07:01:25;;;;;;;5.97;1.23;;;15.70;99.90;;;;;;5085295;28;20033;-76
2022/08/28 07:03:53;;;;;;;7.05;1.15;;;15.90;99.90;;;;;;5087843;28;20170;-76
2022/08/28 07:06:21;;;;;;;6.32;0.90;;;15.90;99.90;;;;;;5091276;28;20020;-75
2022/08/28 07:08:46;;;;;;;6.50;1.17;;;16.00;99.90;;;;;;5092267;28;20083;-76
2022/08/28 07:11:19;;;;;;;8.20;1.00;;;16.10;99.90;;;;;;5090255;28;20128;-76
2022/08/28 07:13:45;;;;;;;5.32;1.00;;;16.30;99.90;;;;;;5089685;28;20383;-76
2022/08/28 07:16:13;;;;;;;5.35;1.00;;;16.40;99.90;;;;;;5088702;28;20024;-76
2022/08/28 07:18:39;;;;;;;5.55;0.95;;;16.50;99.90;;;;;;5092344;28;20103;-77
2022/08/28 07:21:05;;;;;;;7.18;1.00;;;16.60;99.90;;;;;;5092399;28;20106;-75
2022/08/28 07:23:33;;;;;;;11.18;0.70;;;16.70;99.90;;;;;;5095544;28;20020;-76
2022/08/28 07:26:02;;;;;;;9.32;0.93;;;16.90;99.90;;;;;;5087530;28;20036;-76
2022/08/28 07:28:28;;;;;;;5.35;0.80;;;17.00;99.90;;;;;;5084860;28;20028;-76
2022/08/28 07:31:18;;;;;;;10.23;0.70;;;17.10;99.90;;;;;;5092757;28;20425;-76
2022/08/28 07:33:44;;;;;;;6.30;1.20;;;17.20;99.90;;;;;;5091366;28;20024;-76
2022/08/28 07:36:13;;;;;;;6.35;0.80;;;17.20;99.90;;;;;;5091444;28;20032;-76
2022/08/28 07:38:38;;;;;;;8.68;0.70;;;17.30;99.90;;;;;;5090426;28;20424;-76
2022/08/28 07:41:22;;;;;;;7.50;0.80;;;17.40;99.90;;;;;;5091715;28;20047;-76
2022/08/28 07:46:34;;;;;;;6.03;0.75;;;17.60;99.90;;;;;;5091676;28;20115;-76
2022/08/28 07:49:00;;;;;;;5.20;0.63;;;17.70;99.90;;;;;;5092081;28;20040;-76
2022/08/28 07:51:26;;;;;;;7.65;1.05;;;17.80;99.90;;;;;;5088568;28;20442;-77
2022/08/28 07:53:53;;;;;;;6.10;0.80;;;17.90;99.90;;;;;;5091936;28;20039;-76
2022/08/28 07:56:19;;;;;;;5.35;0.50;;;18.00;99.90;;;;;;5089380;28;20032;-76
2022/08/28 07:58:45;;;;;;;5.28;0.60;;;18.10;99.90;;;;;;5083966;28;20500;-77
2022/08/28 08:01:11;;;;;;;8.65;0.77;;;18.20;99.90;;;;;;5087954;28;20024;-76
2022/08/28 08:03:37;;;;;;;5.60;0.50;;;18.20;99.90;;;;;;5072948;28;20078;-77
2022/08/28 08:06:04;;;;;;;7.03;0.88;;;18.30;99.90;;;;;;5090667;28;20020;-77
2022/08/28 08:08:31;;;;;;;5.95;0.77;;;18.30;99.90;;;;;;5094088;28;20100;-76
2022/08/28 08:11:13;;;;;;;4.40;0.63;;;18.30;99.90;;;;;;5095234;28;20070;-77
2022/08/28 08:13:39;;;;;;;11.18;0.68;;;18.30;99.90;;;;;;5094944;28;20084;-76
2022/08/28 08:16:08;;;;;;;4.93;0.50;;;18.20;99.90;;;;;;5095260;28;20070;-76
2022/08/28 08:18:34;;;;;;;3.92;0.65;;;18.30;99.90;;;;;;5086127;28;20441;-74
2022/08/28 08:21:02;;;;;;;5.10;0.50;;;18.50;99.90;;;;;;5081542;28;20157;-75
2022/08/28 08:23:28;;;;;;;4.43;0.70;;;18.60;99.60;;;;;;5107922;28;20034;-76
2022/08/28 08:25:58;;;;;;;6.45;0.50;;;18.70;99.30;;;;;;5110608;28;20020;-75
2022/08/28 08:28:24;;;;;;;5.30;0.60;;;18.80;98.90;;;;;;5092559;28;20486;-76
2022/08/28 08:31:00;;;;;;;3.22;0.50;;;19.00;98.60;;;;;;5094581;28;20043;-75
2022/08/28 08:33:25;;;;;;;4.20;0.77;;;19.10;98.20;;;;;;5092515;28;20058;-76
2022/08/28 08:35:51;;;;;;;3.38;0.47;;;19.20;97.90;;;;;;5084815;28;20032;-77
2022/08/28 08:38:16;;;;;;;4.25;0.70;;;19.40;97.40;;;;;;5090655;28;20028;-76
2022/08/28 08:40:42;;;;;;;6.25;0.90;;;19.50;96.90;;;;;;5094820;28;20024;-76
2022/08/28 08:43:08;;;;;;;4.38;0.80;;;19.60;96.80;;;;;;5103952;28;20101;-75
2022/08/28 08:45:35;;;;;;;4.65;0.73;;;19.80;96.90;;;;;;5085897;28;20028;-76
2022/08/28 08:48:02;;;;;;;6.88;1.08;;;20.00;96.20;;;;;;5094162;28;20043;-76
2022/08/28 08:50:34;;;;;;;4.97;0.50;;;20.20;95.90;;;;;;5096224;28;20114;-76
2022/08/28 08:53:19;;;;;;;6.38;0.80;;;20.40;95.70;;;;;;5115625;28;20028;-76
2022/08/28 08:55:49;;;;;;;7.05;0.80;;;20.60;95.40;;;;;;5103665;28;20035;-77
2022/08/28 08:58:38;;;;;;;8.95;0.85;;;20.80;95.10;;;;;;5093896;28;20034;-76
2022/08/28 09:01:16;;;;;;;2.63;0.68;;;21.00;94.50;;;;;;5088799;28;20020;-76
2022/08/28 09:04:05;;;;;;;4.70;0.63;;;21.10;94.00;;;;;;5087126;28;20016;-76
2022/08/28 09:06:54;;;;;;;4.47;0.43;;;21.30;93.80;;;;;;5097290;28;20024;-76
2022/08/28 09:09:26;;;;;;;4.38;0.40;;;21.50;92.30;;;;;;5085522;28;20039;-76
2022/08/28 09:12:05;;;;;;;2.30;0.50;;;21.50;91.70;;;;;;5086119;28;20028;-76
2022/08/28 09:14:56;;;;;;;2.47;0.40;;;21.60;91.30;;;;;;5076403;28;20036;-76
2022/08/28 09:17:30;;;;;;;2.80;0.40;;;21.60;90.80;;;;;;5086125;28;20383;-76
2022/08/28 09:19:56;;;;;;;7.43;0.68;;;21.70;90.40;;;;;;5091837;28;20053;-76
2022/08/28 09:22:22;;;;;;;2.83;0.60;;;21.90;90.10;;;;;;5094740;28;20039;-76
2022/08/28 09:24:48;;;;;;;3.42;0.40;;;22.10;90.00;;;;;;5094541;28;20029;-76
2022/08/28 09:27:28;;;;;;;2.05;0.40;;;22.20;89.00;;;;;;5091622;28;20028;-76
2022/08/28 09:30:00;;;;;;;2.58;0.50;;;22.20;87.80;;;;;;5090970;28;20438;-76
2022/08/28 09:32:56;;;;;;;12.32;0.55;;;22.20;87.50;;;;;;5094496;28;20028;-76
2022/08/28 09:35:33;;;;;;;6.15;0.60;;;22.30;87.30;;;;;;5095047;28;20107;-76
2022/08/28 09:38:17;;;;;;;2.65;0.38;;;22.40;86.40;;;;;;5093076;28;20039;-78
2022/08/28 09:43:28;;;;;;;2.45;0.50;;;22.40;83.40;;;;;;5094519;28;20039;-76
2022/08/28 09:46:02;;;;;;;1.30;0.30;;;22.30;81.90;;;;;;5094123;28;20020;-76
2022/08/28 09:48:39;;;;;;;3.33;0.45;;;22.10;81.40;;;;;;5092232;28;20051;-76
2022/08/28 09:51:08;;;;;;;1.75;0.32;;;22.00;81.70;;;;;;5093170;28;20438;-76
2022/08/28 09:53:54;;;;;;;4.40;0.40;;;21.80;81.90;;;;;;5093492;28;20020;-75
2022/08/28 09:56:43;;;;;;;6.13;1.27;;;21.70;81.90;;;;;;5086100;28;20040;-77
2022/08/28 09:59:17;;;;;;;1.60;0.35;;;21.60;82.00;;;;;;5091360;28;20020;-76
2022/08/28 10:02:05;;;;;;;1.85;0.40;;;21.60;82.80;;;;;;5091947;28;20108;-76
2022/08/28 10:05:01;;;;;;;2.03;0.40;;;21.50;82.70;;;;;;5091354;28;20102;-76
2022/08/28 10:08:01;;;;;;;6.68;0.40;;;21.50;82.80;;;;;;5087265;28;20040;-76
2022/08/28 10:10:37;;;;;;;3.72;0.45;;;21.40;82.90;;;;;;5085856;28;20283;-76
2022/08/28 10:13:17;;;;;;;2.20;0.40;;;21.50;83.20;;;;;;5089865;28;20032;-76
2022/08/28 10:16:23;;;;;;;3.67;0.40;;;21.70;82.60;;;;;;5090785;28;20437;-76
2022/08/28 10:19:09;;;;;;;3.45;0.55;;;21.90;82.10;;;;;;5091536;28;20414;-76
2022/08/28 10:21:46;;;;;;;4.18;0.43;;;22.00;81.30;;;;;;5089889;28;20128;-76
2022/08/28 10:24:47;;;;;;;2.28;0.45;;;22.00;79.80;;;;;;5075904;28;20034;-76
2022/08/28 10:27:50;;;;;;;2.70;0.32;;;21.90;79.90;;;;;;5090393;28;20403;-76
2022/08/28 10:30:20;;;;;;;4.38;0.40;;;21.70;80.10;;;;;;5077107;28;20039;-77
2022/08/28 10:33:19;;;;;;;5.78;0.40;;;21.60;80.00;;;;;;5090875;28;20032;-76
2022/08/28 10:35:54;;;;;;;4.75;0.88;;;21.70;80.00;;;;;;5092581;28;20036;-76
2022/08/28 10:38:39;;;;;;;3.20;0.40;;;21.70;79.20;;;;;;5091403;28;20028;-76
2022/08/28 10:41:17;;;;;;;7.32;1.38;;;21.90;79.30;;;;;;5073031;28;20040;-76
2022/08/28 10:43:48;;;;;;;1.92;0.40;;;22.20;78.10;;;;;;5088869;28;20031;-76
2022/08/28 10:46:25;;;;;;;2.65;0.63;;;22.30;77.40;;;;;;5091587;28;20099;-76
2022/08/28 10:48:58;;;;;;;2.63;0.30;;;22.30;76.80;;;;;;5092100;28;20035;-76
2022/08/28 10:51:37;;;;;;;3.67;0.30;;;22.20;76.40;;;;;;5092016;28;20032;-76
2022/08/28 10:54:20;;;;;;;3.53;0.38;;;22.30;76.70;;;;;;5090414;28;20024;-78
2022/08/28 10:56:55;;;;;;;3.92;0.40;;;22.50;75.90;;;;;;5082060;28;20039;-76
2022/08/28 10:59:21;;;;;;;2.53;0.50;;;22.80;75.30;;;;;;5090693;28;20035;-76
2022/08/28 11:01:47;;;;;;;2.20;0.30;;;22.80;74.30;;;;;;5092757;28;20039;-76
2022/08/28 11:04:21;;;;;;;3.28;0.40;;;22.80;74.40;;;;;;5091248;28;20024;-76
2022/08/28 11:06:51;;;;;;;4.68;0.40;;;22.90;74.30;;;;;;5092731;28;20145;-76
2022/08/28 11:09:34;;;;;;;3.08;0.40;;;22.90;73.50;;;;;;5089187;28;20032;-76
2022/08/28 11:12:34;;;;;;;2.50;0.50;;;22.70;73.50;;;;;;5091985;28;20077;-76
2022/08/28 11:15:25;;;;;;;4.60;0.40;;;22.60;73.70;;;;;;5090203;28;20032;-77
2022/08/28 11:17:53;;;;;;;6.50;0.50;;;22.50;74.00;;;;;;5091922;28;20080;-76
2022/08/28 11:20:23;;;;;;;1.75;0.30;;;22.70;73.90;;;;;;5078468;28;20020;-76
2022/08/28 11:22:57;;;;;;;2.78;0.40;;;22.90;72.40;;;;;;5088889;28;20020;-76
2022/08/28 11:25:27;;;;;;;3.22;0.40;;;23.20;71.40;;;;;;5090376;28;20129;-77
2022/08/28 11:28:23;;;;;;;2.75;0.45;;;23.30;70.60;;;;;;5091770;28;20031;-76
2022/08/28 11:31:11;;;;;;;2.53;0.40;;;23.50;69.50;;;;;;5090079;28;20044;-77
2022/08/28 11:33:45;;;;;;;3.08;0.40;;;23.30;69.90;;;;;;5089595;28;20027;-76
2022/08/28 11:36:40;;;;;;;1.77;0.35;;;23.00;70.00;;;;;;5092593;28;20024;-76
2022/08/28 11:39:12;;;;;;;2.15;0.38;;;22.80;70.50;;;;;;5079279;28;20073;-76
2022/08/28 11:41:59;;;;;;;3.70;0.30;;;22.80;71.40;;;;;;5094613;28;20365;-76
2022/08/28 11:44:37;;;;;;;2.88;0.30;;;22.90;70.30;;;;;;5092812;28;20035;-76
2022/08/28 11:47:33;;;;;;;6.78;0.60;;;23.10;69.60;;;;;;5095830;28;20054;-76
2022/08/28 11:50:27;;;;;;;5.57;0.50;;;23.10;69.20;;;;;;5094868;28;20459;-76
2022/08/28 11:53:26;;;;;;;3.25;0.40;;;23.10;69.30;;;;;;5088488;28;20045;-76
2022/08/28 11:56:28;;;;;;;4.32;0.40;;;23.30;68.80;;;;;;5077971;28;20027;-76
2022/08/28 11:59:49;;;;;;;4.38;0.40;;;23.70;68.20;;;;;;5096348;28;20440;-77
2022/08/28 12:02:46;;;;;;;1.45;0.30;;;23.80;67.10;;;;;;5063793;28;20495;-76
2022/08/28 12:05:14;;;;;;;2.95;0.30;;;23.60;66.90;;;;;;5086784;28;20085;-76
2022/08/28 12:07:45;;;;;;;2.95;0.50;;;23.50;66.80;;;;;;5080510;28;20500;-76
2022/08/28 12:10:23;;;;;;;3.22;0.35;;;23.30;67.00;;;;;;5080772;28;20051;-76
2022/08/28 12:13:00;;;;;;;1.75;0.40;;;23.10;67.70;;;;;;5096013;28;20476;-76
2022/08/28 12:15:26;;;;;;;2.78;0.32;;;23.00;68.70;;;;;;5092712;28;20110;-76
2022/08/28 12:17:56;;;;;;;1.85;0.30;;;23.30;68.40;;;;;;5095618;28;20059;-76
2022/08/28 12:20:57;;;;;;;3.60;0.40;;;23.60;68.00;;;;;;5086805;28;20116;-76
2022/08/28 12:23:22;;;;;;;4.38;0.30;;;24.00;67.40;;;;;;5088002;28;20103;-76
2022/08/28 12:25:57;;;;;;;1.08;0.30;;;24.10;66.40;;;;;;5093555;28;20575;-76
2022/08/28 12:28:30;;;;;;;2.92;0.40;;;24.00;66.30;;;;;;5095917;28;20044;-76
2022/08/28 12:32:09;;;;;;;2.60;0.30;;;23.80;66.10;;;;;;5094843;28;20023;-76
2022/08/28 12:34:13;;;;;;;2.28;0.30;;;23.60;66.50;;;;;;5093430;28;20489;-76
2022/08/28 12:36:40;;;;;;;2.30;0.30;;;23.50;67.30;;;;;;5090462;28;20024;-76
2022/08/28 12:39:05;;;;;;;3.45;0.40;;;23.70;67.20;;;;;;5095404;28;20129;-76
2022/08/28 12:41:32;;;;;;;3.15;0.35;;;23.80;66.70;;;;;;5094156;28;20056;-76
2022/08/28 12:43:59;;;;;;;2.58;0.55;;;24.00;66.70;;;;;;5093388;28;20027;-76
2022/08/28 12:46:29;;;;;;;2.05;0.30;;;24.40;65.90;;;;;;5091735;28;20024;-76
2022/08/28 12:48:58;;;;;;;2.22;0.30;;;24.60;65.20;;;;;;5090310;28;20116;-76
2022/08/28 12:51:30;;;;;;;1.67;0.32;;;24.80;63.60;;;;;;5074984;28;20504;-76
2022/08/28 12:54:01;;;;;;;1.40;0.20;;;24.80;61.90;;;;;;5081155;28;20016;-76
2022/08/28 12:56:32;;;;;;;4.63;0.30;;;24.50;62.10;;;;;;5091355;28;20020;-76
2022/08/28 12:59:37;;;;;;;3.25;0.50;;;24.40;62.70;;;;;;5093434;28;20027;-76
2022/08/28 13:02:08;;;;;;;1.70;0.40;;;24.30;62.40;;;;;;5092473;28;20032;-76
2022/08/28 13:04:56;;;;;;;1.58;0.30;;;24.00;62.60;;;;;;5089676;28;20024;-76
2022/08/28 13:07:39;;;;;;;3.35;0.30;;;23.80;62.70;;;;;;5094744;28;20121;-76
2022/08/28 13:10:20;;;;;;;1.35;0.30;;;23.50;63.10;;;;;;5094276;28;20040;-76
2022/08/28 13:12:53;;;;;;;1.35;0.30;;;23.60;62.90;;;;;;5095047;28;20103;-76
2022/08/28 13:15:56;;;;;;;1.63;0.28;;;23.80;63.20;;;;;;5092715;28;20067;-76